sensor_id;sensor_type;location;lat;lon;timestamp;P1;durP1;ratioP1;P2;durP2;ratioP2
32393;SDS011;18853;45.426;9.206;2023-12-20T00:00:37;46.65;;;32.03;;
32393;SDS011;18853;45.426;9.206;2023-12-20T00:03:03;43.97;;;33.17;;
32393;SDS011;18853;45.426;9.206;2023-12-20T00:05:29;43.03;;;31.63;;
32393;SDS011;18853;45.426;9.206;2023-12-20T00:07:57;44.92;;;32.70;;
32393;SDS011;18853;45.426;9.206;2023-12-20T00:10:22;43.50;;;30.92;;
32393;SDS011;18853;45.426;9.206;2023-12-20T00:12:48;43.10;;;31.73;;
32393;SDS011;18853;45.426;9.206;2023-12-20T00:15:13;41.42;;;31.92;;
32393;SDS011;18853;45.426;9.206;2023-12-20T00:17:39;41.88;;;32.15;;
32393;SDS011;18853;45.426;9.206;2023-12-20T00:20:04;42.47;;;32.10;;
32393;SDS011;18853;45.426;9.206;2023-12-20T00:22:31;44.58;;;32.08;;
32393;SDS011;18853;45.426;9.206;2023-12-20T00:24:56;46.05;;;32.95;;
32393;SDS011;18853;45.426;9.206;2023-12-20T00:27:22;42.00;;;32.50;;
32393;SDS011;18853;45.426;9.206;2023-12-20T00:29:48;43.70;;;32.47;;
32393;SDS011;18853;45.426;9.206;2023-12-20T00:32:15;45.75;;;32.28;;
32393;SDS011;18853;45.426;9.206;2023-12-20T00:34:41;44.78;;;32.42;;
32393;SDS011;18853;45.426;9.206;2023-12-20T00:37:06;50.70;;;34.80;;
32393;SDS011;18853;45.426;9.206;2023-12-20T00:39:32;44.20;;;33.10;;
32393;SDS011;18853;45.426;9.206;2023-12-20T00:41:58;49.10;;;36.85;;
32393;SDS011;18853;45.426;9.206;2023-12-20T00:44:23;47.47;;;35.53;;
32393;SDS011;18853;45.426;9.206;2023-12-20T00:46:49;50.53;;;35.90;;
32393;SDS011;18853;45.426;9.206;2023-12-20T00:49:14;51.63;;;37.53;;
32393;SDS011;18853;45.426;9.206;2023-12-20T00:51:40;57.72;;;40.92;;
32393;SDS011;18853;45.426;9.206;2023-12-20T00:54:05;57.45;;;40.53;;
32393;SDS011;18853;45.426;9.206;2023-12-20T00:56:31;58.35;;;42.63;;
32393;SDS011;18853;45.426;9.206;2023-12-20T00:58:56;54.45;;;39.80;;
32393;SDS011;18853;45.426;9.206;2023-12-20T01:01:22;60.45;;;41.35;;
32393;SDS011;18853;45.426;9.206;2023-12-20T01:03:47;54.17;;;39.40;;
32393;SDS011;18853;45.426;9.206;2023-12-20T01:06:16;56.30;;;40.00;;
32393;SDS011;18853;45.426;9.206;2023-12-20T01:08:41;53.95;;;40.63;;
32393;SDS011;18853;45.426;9.206;2023-12-20T01:11:07;56.08;;;40.05;;
32393;SDS011;18853;45.426;9.206;2023-12-20T01:13:32;54.00;;;38.42;;
32393;SDS011;18853;45.426;9.206;2023-12-20T01:15:58;51.60;;;37.90;;
32393;SDS011;18853;45.426;9.206;2023-12-20T01:18:23;54.00;;;38.90;;
32393;SDS011;18853;45.426;9.206;2023-12-20T01:20:49;54.80;;;38.13;;
32393;SDS011;18853;45.426;9.206;2023-12-20T01:23:15;54.55;;;38.45;;
32393;SDS011;18853;45.426;9.206;2023-12-20T01:25:40;57.53;;;38.20;;
32393;SDS011;18853;45.426;9.206;2023-12-20T01:28:06;55.58;;;38.95;;
32393;SDS011;18853;45.426;9.206;2023-12-20T01:30:31;52.40;;;38.08;;
32393;SDS011;18853;45.426;9.206;2023-12-20T01:32:58;51.72;;;38.17;;
32393;SDS011;18853;45.426;9.206;2023-12-20T01:35:24;47.15;;;37.22;;
32393;SDS011;18853;45.426;9.206;2023-12-20T01:37:50;49.58;;;37.28;;
32393;SDS011;18853;45.426;9.206;2023-12-20T01:40:16;51.05;;;37.10;;
32393;SDS011;18853;45.426;9.206;2023-12-20T01:42:41;55.10;;;38.20;;
32393;SDS011;18853;45.426;9.206;2023-12-20T01:45:07;51.30;;;36.17;;
32393;SDS011;18853;45.426;9.206;2023-12-20T01:47:33;51.65;;;37.63;;
32393;SDS011;18853;45.426;9.206;2023-12-20T01:49:59;53.63;;;37.92;;
32393;SDS011;18853;45.426;9.206;2023-12-20T01:52:28;50.05;;;36.08;;
32393;SDS011;18853;45.426;9.206;2023-12-20T01:54:54;49.45;;;37.08;;
32393;SDS011;18853;45.426;9.206;2023-12-20T01:57:26;50.60;;;36.88;;
32393;SDS011;18853;45.426;9.206;2023-12-20T01:59:52;53.25;;;37.17;;
32393;SDS011;18853;45.426;9.206;2023-12-20T02:02:18;50.30;;;37.05;;
32393;SDS011;18853;45.426;9.206;2023-12-20T02:04:44;52.50;;;36.85;;
32393;SDS011;18853;45.426;9.206;2023-12-20T02:07:10;49.17;;;35.92;;
32393;SDS011;18853;45.426;9.206;2023-12-20T02:09:36;50.47;;;36.88;;
32393;SDS011;18853;45.426;9.206;2023-12-20T02:12:04;51.25;;;36.35;;
32393;SDS011;18853;45.426;9.206;2023-12-20T02:14:30;48.10;;;37.03;;
32393;SDS011;18853;45.426;9.206;2023-12-20T02:16:56;47.70;;;35.97;;
32393;SDS011;18853;45.426;9.206;2023-12-20T02:19:21;51.30;;;36.85;;
32393;SDS011;18853;45.426;9.206;2023-12-20T02:21:47;47.97;;;35.45;;
32393;SDS011;18853;45.426;9.206;2023-12-20T02:24:12;49.70;;;37.45;;
32393;SDS011;18853;45.426;9.206;2023-12-20T02:26:38;54.17;;;36.42;;
32393;SDS011;18853;45.426;9.206;2023-12-20T02:29:04;45.30;;;35.30;;
32393;SDS011;18853;45.426;9.206;2023-12-20T02:31:29;45.92;;;34.85;;
32393;SDS011;18853;45.426;9.206;2023-12-20T02:33:55;44.78;;;35.80;;
32393;SDS011;18853;45.426;9.206;2023-12-20T02:36:20;46.65;;;37.20;;
32393;SDS011;18853;45.426;9.206;2023-12-20T02:38:46;45.30;;;35.00;;
32393;SDS011;18853;45.426;9.206;2023-12-20T02:41:11;47.10;;;35.53;;
32393;SDS011;18853;45.426;9.206;2023-12-20T02:43:37;52.22;;;38.25;;
32393;SDS011;18853;45.426;9.206;2023-12-20T02:46:03;56.35;;;39.08;;
32393;SDS011;18853;45.426;9.206;2023-12-20T02:48:28;55.95;;;39.60;;
32393;SDS011;18853;45.426;9.206;2023-12-20T02:50:54;52.90;;;38.22;;
32393;SDS011;18853;45.426;9.206;2023-12-20T02:53:20;54.67;;;38.67;;
32393;SDS011;18853;45.426;9.206;2023-12-20T02:55:45;52.22;;;38.33;;
32393;SDS011;18853;45.426;9.206;2023-12-20T02:58:11;48.88;;;37.20;;
32393;SDS011;18853;45.426;9.206;2023-12-20T03:00:36;52.15;;;36.95;;
32393;SDS011;18853;45.426;9.206;2023-12-20T03:03:02;50.65;;;36.30;;
32393;SDS011;18853;45.426;9.206;2023-12-20T03:05:28;48.85;;;35.95;;
32393;SDS011;18853;45.426;9.206;2023-12-20T03:07:53;54.17;;;38.50;;
32393;SDS011;18853;45.426;9.206;2023-12-20T03:10:19;52.85;;;37.30;;
32393;SDS011;18853;45.426;9.206;2023-12-20T03:12:44;49.08;;;36.92;;
32393;SDS011;18853;45.426;9.206;2023-12-20T03:15:10;48.05;;;35.92;;
32393;SDS011;18853;45.426;9.206;2023-12-20T03:17:36;54.60;;;37.90;;
32393;SDS011;18853;45.426;9.206;2023-12-20T03:20:01;48.17;;;37.78;;
32393;SDS011;18853;45.426;9.206;2023-12-20T03:22:27;48.15;;;36.83;;
32393;SDS011;18853;45.426;9.206;2023-12-20T03:24:53;48.95;;;36.67;;
32393;SDS011;18853;45.426;9.206;2023-12-20T03:27:18;47.65;;;36.25;;
32393;SDS011;18853;45.426;9.206;2023-12-20T03:29:44;49.88;;;36.10;;
32393;SDS011;18853;45.426;9.206;2023-12-20T03:32:09;50.33;;;35.72;;
32393;SDS011;18853;45.426;9.206;2023-12-20T03:34:35;51.97;;;37.20;;
32393;SDS011;18853;45.426;9.206;2023-12-20T03:37:00;46.67;;;35.33;;
32393;SDS011;18853;45.426;9.206;2023-12-20T03:39:26;48.70;;;36.05;;
32393;SDS011;18853;45.426;9.206;2023-12-20T03:41:51;52.13;;;37.03;;
32393;SDS011;18853;45.426;9.206;2023-12-20T03:44:17;47.88;;;35.95;;
32393;SDS011;18853;45.426;9.206;2023-12-20T03:46:43;50.00;;;35.47;;
32393;SDS011;18853;45.426;9.206;2023-12-20T03:49:08;51.92;;;37.33;;
32393;SDS011;18853;45.426;9.206;2023-12-20T03:51:34;45.75;;;35.05;;
32393;SDS011;18853;45.426;9.206;2023-12-20T03:53:59;46.80;;;36.03;;
32393;SDS011;18853;45.426;9.206;2023-12-20T03:56:25;46.88;;;36.33;;
32393;SDS011;18853;45.426;9.206;2023-12-20T03:58:50;46.50;;;36.30;;
32393;SDS011;18853;45.426;9.206;2023-12-20T04:01:16;49.22;;;35.97;;
32393;SDS011;18853;45.426;9.206;2023-12-20T04:03:41;46.35;;;34.80;;
32393;SDS011;18853;45.426;9.206;2023-12-20T04:06:07;51.30;;;35.78;;
32393;SDS011;18853;45.426;9.206;2023-12-20T04:08:32;45.55;;;35.38;;
32393;SDS011;18853;45.426;9.206;2023-12-20T04:10:58;50.90;;;36.22;;
32393;SDS011;18853;45.426;9.206;2023-12-20T04:13:23;46.50;;;34.83;;
32393;SDS011;18853;45.426;9.206;2023-12-20T04:15:49;46.50;;;35.55;;
32393;SDS011;18853;45.426;9.206;2023-12-20T04:18:16;46.03;;;34.67;;
32393;SDS011;18853;45.426;9.206;2023-12-20T04:20:41;46.72;;;34.63;;
32393;SDS011;18853;45.426;9.206;2023-12-20T04:23:07;49.28;;;35.95;;
32393;SDS011;18853;45.426;9.206;2023-12-20T04:25:32;48.85;;;35.75;;
32393;SDS011;18853;45.426;9.206;2023-12-20T04:27:58;49.75;;;35.63;;
32393;SDS011;18853;45.426;9.206;2023-12-20T04:30:23;45.38;;;34.63;;
32393;SDS011;18853;45.426;9.206;2023-12-20T04:32:49;53.10;;;35.00;;
32393;SDS011;18853;45.426;9.206;2023-12-20T04:35:14;45.22;;;33.65;;
32393;SDS011;18853;45.426;9.206;2023-12-20T04:37:40;50.60;;;35.83;;
32393;SDS011;18853;45.426;9.206;2023-12-20T04:40:05;46.70;;;36.13;;
32393;SDS011;18853;45.426;9.206;2023-12-20T04:42:33;50.45;;;36.50;;
32393;SDS011;18853;45.426;9.206;2023-12-20T04:44:58;50.72;;;36.35;;
32393;SDS011;18853;45.426;9.206;2023-12-20T04:47:24;55.20;;;36.47;;
32393;SDS011;18853;45.426;9.206;2023-12-20T04:49:49;50.22;;;36.95;;
32393;SDS011;18853;45.426;9.206;2023-12-20T04:52:15;49.70;;;37.30;;
32393;SDS011;18853;45.426;9.206;2023-12-20T04:54:40;48.85;;;35.53;;
32393;SDS011;18853;45.426;9.206;2023-12-20T04:57:06;46.13;;;33.75;;
32393;SDS011;18853;45.426;9.206;2023-12-20T04:59:31;50.92;;;36.15;;
32393;SDS011;18853;45.426;9.206;2023-12-20T05:01:57;49.75;;;34.92;;
32393;SDS011;18853;45.426;9.206;2023-12-20T05:04:23;49.65;;;35.92;;
32393;SDS011;18853;45.426;9.206;2023-12-20T05:06:49;47.17;;;35.83;;
32393;SDS011;18853;45.426;9.206;2023-12-20T05:09:15;50.10;;;34.75;;
32393;SDS011;18853;45.426;9.206;2023-12-20T05:11:44;46.13;;;35.28;;
32393;SDS011;18853;45.426;9.206;2023-12-20T05:14:10;50.88;;;35.38;;
32393;SDS011;18853;45.426;9.206;2023-12-20T05:16:35;43.17;;;33.22;;
32393;SDS011;18853;45.426;9.206;2023-12-20T05:19:01;50.17;;;35.45;;
32393;SDS011;18853;45.426;9.206;2023-12-20T05:21:31;47.33;;;35.10;;
32393;SDS011;18853;45.426;9.206;2023-12-20T05:23:57;47.60;;;35.42;;
32393;SDS011;18853;45.426;9.206;2023-12-20T05:26:22;48.45;;;36.58;;
32393;SDS011;18853;45.426;9.206;2023-12-20T05:28:48;47.28;;;36.42;;
32393;SDS011;18853;45.426;9.206;2023-12-20T05:31:13;53.03;;;35.33;;
32393;SDS011;18853;45.426;9.206;2023-12-20T05:33:39;47.03;;;35.83;;
32393;SDS011;18853;45.426;9.206;2023-12-20T05:36:04;47.47;;;36.38;;
32393;SDS011;18853;45.426;9.206;2023-12-20T05:38:30;49.10;;;35.55;;
32393;SDS011;18853;45.426;9.206;2023-12-20T05:40:55;45.60;;;35.45;;
32393;SDS011;18853;45.426;9.206;2023-12-20T05:43:21;48.38;;;36.97;;
32393;SDS011;18853;45.426;9.206;2023-12-20T05:45:47;50.83;;;36.45;;
32393;SDS011;18853;45.426;9.206;2023-12-20T05:48:12;47.80;;;35.90;;
32393;SDS011;18853;45.426;9.206;2023-12-20T05:50:38;44.85;;;34.65;;
32393;SDS011;18853;45.426;9.206;2023-12-20T05:53:04;46.30;;;34.90;;
32393;SDS011;18853;45.426;9.206;2023-12-20T05:55:30;45.75;;;35.08;;
32393;SDS011;18853;45.426;9.206;2023-12-20T05:57:55;47.33;;;34.55;;
32393;SDS011;18853;45.426;9.206;2023-12-20T06:00:21;49.30;;;36.38;;
32393;SDS011;18853;45.426;9.206;2023-12-20T06:02:46;48.05;;;36.15;;
32393;SDS011;18853;45.426;9.206;2023-12-20T06:05:12;45.88;;;35.40;;
32393;SDS011;18853;45.426;9.206;2023-12-20T06:07:37;46.88;;;35.42;;
32393;SDS011;18853;45.426;9.206;2023-12-20T06:10:03;50.47;;;36.45;;
32393;SDS011;18853;45.426;9.206;2023-12-20T06:12:31;51.33;;;36.83;;
32393;SDS011;18853;45.426;9.206;2023-12-20T06:14:58;46.33;;;35.63;;
32393;SDS011;18853;45.426;9.206;2023-12-20T06:17:23;56.75;;;38.40;;
32393;SDS011;18853;45.426;9.206;2023-12-20T06:19:49;48.83;;;36.15;;
32393;SDS011;18853;45.426;9.206;2023-12-20T06:22:15;49.35;;;35.75;;
32393;SDS011;18853;45.426;9.206;2023-12-20T06:24:40;46.28;;;35.10;;
32393;SDS011;18853;45.426;9.206;2023-12-20T06:27:06;48.53;;;35.28;;
32393;SDS011;18853;45.426;9.206;2023-12-20T06:29:31;50.72;;;37.42;;
32393;SDS011;18853;45.426;9.206;2023-12-20T06:31:57;49.70;;;36.28;;
32393;SDS011;18853;45.426;9.206;2023-12-20T06:34:23;48.80;;;38.13;;
32393;SDS011;18853;45.426;9.206;2023-12-20T06:36:48;49.83;;;37.42;;
32393;SDS011;18853;45.426;9.206;2023-12-20T06:39:14;54.22;;;37.50;;
32393;SDS011;18853;45.426;9.206;2023-12-20T06:41:39;53.60;;;38.85;;
32393;SDS011;18853;45.426;9.206;2023-12-20T06:44:05;53.30;;;37.65;;
32393;SDS011;18853;45.426;9.206;2023-12-20T06:46:31;53.45;;;37.63;;
32393;SDS011;18853;45.426;9.206;2023-12-20T06:48:56;54.83;;;38.03;;
32393;SDS011;18853;45.426;9.206;2023-12-20T06:51:22;52.72;;;38.30;;
32393;SDS011;18853;45.426;9.206;2023-12-20T06:53:50;55.60;;;39.28;;
32393;SDS011;18853;45.426;9.206;2023-12-20T06:56:16;51.17;;;38.00;;
32393;SDS011;18853;45.426;9.206;2023-12-20T06:58:42;52.67;;;37.08;;
32393;SDS011;18853;45.426;9.206;2023-12-20T07:01:14;50.80;;;36.40;;
32393;SDS011;18853;45.426;9.206;2023-12-20T07:03:40;49.05;;;37.90;;
32393;SDS011;18853;45.426;9.206;2023-12-20T07:06:06;51.20;;;36.17;;
32393;SDS011;18853;45.426;9.206;2023-12-20T07:08:32;51.35;;;37.00;;
32393;SDS011;18853;45.426;9.206;2023-12-20T07:10:58;44.33;;;34.80;;
32393;SDS011;18853;45.426;9.206;2023-12-20T07:13:23;53.92;;;36.95;;
32393;SDS011;18853;45.426;9.206;2023-12-20T07:15:49;52.60;;;37.10;;
32393;SDS011;18853;45.426;9.206;2023-12-20T07:18:15;50.47;;;36.38;;
32393;SDS011;18853;45.426;9.206;2023-12-20T07:20:41;53.40;;;38.03;;
32393;SDS011;18853;45.426;9.206;2023-12-20T07:23:07;54.75;;;37.65;;
32393;SDS011;18853;45.426;9.206;2023-12-20T07:25:32;50.83;;;38.10;;
32393;SDS011;18853;45.426;9.206;2023-12-20T07:27:58;54.45;;;39.63;;
32393;SDS011;18853;45.426;9.206;2023-12-20T07:30:23;54.95;;;37.88;;
32393;SDS011;18853;45.426;9.206;2023-12-20T07:32:49;49.88;;;37.70;;
32393;SDS011;18853;45.426;9.206;2023-12-20T07:35:17;48.67;;;36.97;;
32393;SDS011;18853;45.426;9.206;2023-12-20T07:37:43;48.97;;;37.58;;
32393;SDS011;18853;45.426;9.206;2023-12-20T07:40:09;53.63;;;38.78;;
32393;SDS011;18853;45.426;9.206;2023-12-20T07:42:35;51.42;;;39.47;;
32393;SDS011;18853;45.426;9.206;2023-12-20T07:45:01;53.78;;;37.85;;
32393;SDS011;18853;45.426;9.206;2023-12-20T07:47:26;59.88;;;37.47;;
32393;SDS011;18853;45.426;9.206;2023-12-20T07:49:52;55.42;;;38.63;;
32393;SDS011;18853;45.426;9.206;2023-12-20T07:52:18;58.70;;;39.88;;
32393;SDS011;18853;45.426;9.206;2023-12-20T07:54:44;54.35;;;40.58;;
32393;SDS011;18853;45.426;9.206;2023-12-20T07:57:10;65.93;;;45.58;;
32393;SDS011;18853;45.426;9.206;2023-12-20T07:59:36;64.57;;;43.28;;
32393;SDS011;18853;45.426;9.206;2023-12-20T08:02:02;60.30;;;43.28;;
32393;SDS011;18853;45.426;9.206;2023-12-20T08:04:27;57.10;;;42.85;;
32393;SDS011;18853;45.426;9.206;2023-12-20T08:06:53;60.17;;;43.58;;
32393;SDS011;18853;45.426;9.206;2023-12-20T08:09:19;58.72;;;43.45;;
32393;SDS011;18853;45.426;9.206;2023-12-20T08:11:45;58.35;;;43.65;;
32393;SDS011;18853;45.426;9.206;2023-12-20T08:14:11;57.25;;;43.38;;
32393;SDS011;18853;45.426;9.206;2023-12-20T08:16:36;58.13;;;43.65;;
32393;SDS011;18853;45.426;9.206;2023-12-20T08:19:02;58.22;;;43.83;;
32393;SDS011;18853;45.426;9.206;2023-12-20T08:21:27;57.67;;;43.53;;
32393;SDS011;18853;45.426;9.206;2023-12-20T08:23:54;55.72;;;42.45;;
32393;SDS011;18853;45.426;9.206;2023-12-20T08:26:20;59.53;;;43.65;;
32393;SDS011;18853;45.426;9.206;2023-12-20T08:28:47;58.50;;;43.53;;
32393;SDS011;18853;45.426;9.206;2023-12-20T08:31:16;57.40;;;43.13;;
32393;SDS011;18853;45.426;9.206;2023-12-20T08:33:44;57.03;;;42.83;;
32393;SDS011;18853;45.426;9.206;2023-12-20T08:36:10;54.35;;;40.97;;
32393;SDS011;18853;45.426;9.206;2023-12-20T08:38:36;55.67;;;39.85;;
32393;SDS011;18853;45.426;9.206;2023-12-20T08:41:02;55.45;;;38.03;;
32393;SDS011;18853;45.426;9.206;2023-12-20T08:43:30;52.95;;;40.65;;
32393;SDS011;18853;45.426;9.206;2023-12-20T08:45:56;59.00;;;40.45;;
32393;SDS011;18853;45.426;9.206;2023-12-20T08:48:21;56.25;;;40.28;;
32393;SDS011;18853;45.426;9.206;2023-12-20T08:50:47;53.55;;;39.60;;
32393;SDS011;18853;45.426;9.206;2023-12-20T08:53:14;52.53;;;39.90;;
32393;SDS011;18853;45.426;9.206;2023-12-20T08:55:41;51.25;;;38.40;;
32393;SDS011;18853;45.426;9.206;2023-12-20T08:58:07;51.65;;;40.33;;
32393;SDS011;18853;45.426;9.206;2023-12-20T09:00:33;52.40;;;40.00;;
32393;SDS011;18853;45.426;9.206;2023-12-20T09:02:59;48.50;;;38.00;;
32393;SDS011;18853;45.426;9.206;2023-12-20T09:05:25;51.83;;;39.00;;
32393;SDS011;18853;45.426;9.206;2023-12-20T09:07:50;53.33;;;39.70;;
32393;SDS011;18853;45.426;9.206;2023-12-20T09:10:16;53.45;;;39.38;;
32393;SDS011;18853;45.426;9.206;2023-12-20T09:12:46;52.33;;;39.60;;
32393;SDS011;18853;45.426;9.206;2023-12-20T09:15:16;53.90;;;40.28;;
32393;SDS011;18853;45.426;9.206;2023-12-20T09:17:41;53.67;;;40.53;;
32393;SDS011;18853;45.426;9.206;2023-12-20T09:20:07;57.67;;;39.70;;
32393;SDS011;18853;45.426;9.206;2023-12-20T09:22:33;52.75;;;40.60;;
32393;SDS011;18853;45.426;9.206;2023-12-20T09:24:59;54.85;;;39.92;;
32393;SDS011;18853;45.426;9.206;2023-12-20T09:27:25;53.00;;;41.60;;
32393;SDS011;18853;45.426;9.206;2023-12-20T09:29:51;54.58;;;40.10;;
32393;SDS011;18853;45.426;9.206;2023-12-20T09:32:18;51.55;;;39.67;;
32393;SDS011;18853;45.426;9.206;2023-12-20T09:34:45;52.72;;;40.95;;
32393;SDS011;18853;45.426;9.206;2023-12-20T09:37:12;56.05;;;39.75;;
32393;SDS011;18853;45.426;9.206;2023-12-20T09:39:38;49.50;;;39.30;;
32393;SDS011;18853;45.426;9.206;2023-12-20T09:42:04;50.78;;;39.90;;
32393;SDS011;18853;45.426;9.206;2023-12-20T09:44:31;55.30;;;40.47;;
32393;SDS011;18853;45.426;9.206;2023-12-20T09:47:02;57.92;;;42.22;;
32393;SDS011;18853;45.426;9.206;2023-12-20T09:49:28;59.75;;;44.22;;
32393;SDS011;18853;45.426;9.206;2023-12-20T09:51:55;64.93;;;44.55;;
32393;SDS011;18853;45.426;9.206;2023-12-20T09:54:21;60.05;;;44.33;;
32393;SDS011;18853;45.426;9.206;2023-12-20T09:56:48;58.42;;;44.15;;
32393;SDS011;18853;45.426;9.206;2023-12-20T09:59:14;57.55;;;43.53;;
32393;SDS011;18853;45.426;9.206;2023-12-20T10:01:40;55.40;;;41.72;;
32393;SDS011;18853;45.426;9.206;2023-12-20T10:04:07;56.25;;;42.88;;
32393;SDS011;18853;45.426;9.206;2023-12-20T10:06:43;57.30;;;42.22;;
32393;SDS011;18853;45.426;9.206;2023-12-20T10:09:09;59.53;;;43.67;;
32393;SDS011;18853;45.426;9.206;2023-12-20T10:11:36;59.63;;;43.42;;
32393;SDS011;18853;45.426;9.206;2023-12-20T10:14:03;52.95;;;42.67;;
32393;SDS011;18853;45.426;9.206;2023-12-20T10:16:29;56.25;;;43.05;;
32393;SDS011;18853;45.426;9.206;2023-12-20T10:18:55;55.00;;;42.03;;
32393;SDS011;18853;45.426;9.206;2023-12-20T10:21:24;58.88;;;43.13;;
32393;SDS011;18853;45.426;9.206;2023-12-20T10:23:56;56.90;;;42.45;;
32393;SDS011;18853;45.426;9.206;2023-12-20T10:26:23;56.67;;;43.30;;
32393;SDS011;18853;45.426;9.206;2023-12-20T10:28:53;63.50;;;43.28;;
32393;SDS011;18853;45.426;9.206;2023-12-20T10:31:25;56.80;;;42.75;;
32393;SDS011;18853;45.426;9.206;2023-12-20T10:33:51;57.15;;;41.97;;
32393;SDS011;18853;45.426;9.206;2023-12-20T10:36:17;57.95;;;41.85;;
32393;SDS011;18853;45.426;9.206;2023-12-20T10:38:42;57.22;;;41.83;;
32393;SDS011;18853;45.426;9.206;2023-12-20T10:41:09;54.72;;;41.50;;
32393;SDS011;18853;45.426;9.206;2023-12-20T10:43:36;57.83;;;42.30;;
32393;SDS011;18853;45.426;9.206;2023-12-20T10:46:03;54.03;;;41.67;;
32393;SDS011;18853;45.426;9.206;2023-12-20T10:48:28;57.90;;;41.97;;
32393;SDS011;18853;45.426;9.206;2023-12-20T10:50:57;58.47;;;42.33;;
32393;SDS011;18853;45.426;9.206;2023-12-20T10:53:24;54.67;;;42.03;;
32393;SDS011;18853;45.426;9.206;2023-12-20T10:55:50;55.25;;;42.75;;
32393;SDS011;18853;45.426;9.206;2023-12-20T10:58:20;55.97;;;41.92;;
32393;SDS011;18853;45.426;9.206;2023-12-20T11:00:46;60.55;;;42.22;;
32393;SDS011;18853;45.426;9.206;2023-12-20T11:03:15;52.58;;;43.33;;
32393;SDS011;18853;45.426;9.206;2023-12-20T11:05:49;55.72;;;42.42;;
32393;SDS011;18853;45.426;9.206;2023-12-20T11:11:14;56.72;;;42.15;;
32393;SDS011;18853;45.426;9.206;2023-12-20T11:14:06;53.65;;;42.75;;
32393;SDS011;18853;45.426;9.206;2023-12-20T11:16:37;58.97;;;44.10;;
32393;SDS011;18853;45.426;9.206;2023-12-20T11:19:06;52.95;;;42.05;;
32393;SDS011;18853;45.426;9.206;2023-12-20T11:21:31;56.92;;;44.28;;
32393;SDS011;18853;45.426;9.206;2023-12-20T11:23:57;55.22;;;42.92;;
32393;SDS011;18853;45.426;9.206;2023-12-20T11:26:27;56.13;;;43.03;;
32393;SDS011;18853;45.426;9.206;2023-12-20T11:34:50;98.97;;;69.22;;
32393;SDS011;18853;45.426;9.206;2023-12-20T11:37:16;71.63;;;53.72;;
32393;SDS011;18853;45.426;9.206;2023-12-20T11:39:45;57.15;;;44.30;;
32393;SDS011;18853;45.426;9.206;2023-12-20T11:42:18;53.00;;;42.47;;
32393;SDS011;18853;45.426;9.206;2023-12-20T11:44:45;56.50;;;41.75;;
32393;SDS011;18853;45.426;9.206;2023-12-20T11:47:11;56.58;;;42.45;;
32393;SDS011;18853;45.426;9.206;2023-12-20T11:49:38;53.22;;;41.92;;
32393;SDS011;18853;45.426;9.206;2023-12-20T11:52:05;52.50;;;40.97;;
32393;SDS011;18853;45.426;9.206;2023-12-20T11:54:30;53.80;;;41.50;;
32393;SDS011;18853;45.426;9.206;2023-12-20T11:56:56;52.45;;;41.50;;
32393;SDS011;18853;45.426;9.206;2023-12-20T11:59:22;52.13;;;40.67;;
32393;SDS011;18853;45.426;9.206;2023-12-20T12:01:48;55.65;;;41.10;;
32393;SDS011;18853;45.426;9.206;2023-12-20T12:04:15;54.13;;;41.72;;
32393;SDS011;18853;45.426;9.206;2023-12-20T12:06:42;49.95;;;41.45;;
32393;SDS011;18853;45.426;9.206;2023-12-20T12:09:08;50.38;;;40.50;;
32393;SDS011;18853;45.426;9.206;2023-12-20T12:11:34;50.78;;;40.38;;
32393;SDS011;18853;45.426;9.206;2023-12-20T12:13:59;48.17;;;38.13;;
32393;SDS011;18853;45.426;9.206;2023-12-20T12:16:25;50.20;;;40.25;;
32393;SDS011;18853;45.426;9.206;2023-12-20T12:18:57;51.72;;;39.08;;
32393;SDS011;18853;45.426;9.206;2023-12-20T12:21:23;51.25;;;39.60;;
32393;SDS011;18853;45.426;9.206;2023-12-20T12:23:49;47.95;;;38.83;;
32393;SDS011;18853;45.426;9.206;2023-12-20T12:26:14;47.38;;;37.60;;
32393;SDS011;18853;45.426;9.206;2023-12-20T12:28:40;49.28;;;37.88;;
32393;SDS011;18853;45.426;9.206;2023-12-20T12:31:07;49.15;;;39.17;;
32393;SDS011;18853;45.426;9.206;2023-12-20T12:33:33;48.10;;;38.47;;
32393;SDS011;18853;45.426;9.206;2023-12-20T12:36:03;49.13;;;37.90;;
32393;SDS011;18853;45.426;9.206;2023-12-20T12:38:30;49.97;;;37.88;;
32393;SDS011;18853;45.426;9.206;2023-12-20T12:40:55;49.22;;;38.63;;
32393;SDS011;18853;45.426;9.206;2023-12-20T12:43:21;49.60;;;38.47;;
32393;SDS011;18853;45.426;9.206;2023-12-20T12:45:48;47.92;;;38.30;;
32393;SDS011;18853;45.426;9.206;2023-12-20T12:48:14;48.08;;;39.45;;
32393;SDS011;18853;45.426;9.206;2023-12-20T12:50:40;50.55;;;40.90;;
32393;SDS011;18853;45.426;9.206;2023-12-20T12:53:05;51.10;;;40.72;;
32393;SDS011;18853;45.426;9.206;2023-12-20T12:55:31;50.25;;;39.47;;
32393;SDS011;18853;45.426;9.206;2023-12-20T12:57:56;44.78;;;37.53;;
32393;SDS011;18853;45.426;9.206;2023-12-20T13:00:22;50.60;;;39.55;;
32393;SDS011;18853;45.426;9.206;2023-12-20T13:02:48;44.83;;;37.15;;
32393;SDS011;18853;45.426;9.206;2023-12-20T13:05:13;48.35;;;38.15;;
32393;SDS011;18853;45.426;9.206;2023-12-20T13:07:39;43.80;;;37.60;;
32393;SDS011;18853;45.426;9.206;2023-12-20T13:10:05;46.90;;;37.78;;
32393;SDS011;18853;45.426;9.206;2023-12-20T13:12:31;46.25;;;38.10;;
32393;SDS011;18853;45.426;9.206;2023-12-20T13:14:57;46.15;;;37.40;;
32393;SDS011;18853;45.426;9.206;2023-12-20T13:17:23;49.53;;;38.03;;
32393;SDS011;18853;45.426;9.206;2023-12-20T13:19:48;45.28;;;37.30;;
32393;SDS011;18853;45.426;9.206;2023-12-20T13:22:14;45.33;;;36.55;;
32393;SDS011;18853;45.426;9.206;2023-12-20T13:24:40;45.67;;;37.65;;
32393;SDS011;18853;45.426;9.206;2023-12-20T13:27:08;41.97;;;37.25;;
32393;SDS011;18853;45.426;9.206;2023-12-20T13:29:34;47.63;;;38.03;;
32393;SDS011;18853;45.426;9.206;2023-12-20T13:32:00;49.35;;;40.13;;
32393;SDS011;18853;45.426;9.206;2023-12-20T13:34:25;45.92;;;38.45;;
32393;SDS011;18853;45.426;9.206;2023-12-20T13:36:51;41.33;;;36.13;;
32393;SDS011;18853;45.426;9.206;2023-12-20T13:39:16;42.85;;;36.45;;
32393;SDS011;18853;45.426;9.206;2023-12-20T13:41:43;44.60;;;36.05;;
32393;SDS011;18853;45.426;9.206;2023-12-20T13:44:08;44.78;;;37.30;;
32393;SDS011;18853;45.426;9.206;2023-12-20T13:46:34;43.63;;;36.70;;
32393;SDS011;18853;45.426;9.206;2023-12-20T13:48:59;48.58;;;39.25;;
32393;SDS011;18853;45.426;9.206;2023-12-20T13:51:25;44.85;;;37.30;;
32393;SDS011;18853;45.426;9.206;2023-12-20T13:53:50;46.15;;;36.97;;
32393;SDS011;18853;45.426;9.206;2023-12-20T13:56:16;42.70;;;37.33;;
32393;SDS011;18853;45.426;9.206;2023-12-20T13:58:41;44.63;;;37.35;;
32393;SDS011;18853;45.426;9.206;2023-12-20T14:01:08;42.47;;;37.15;;
32393;SDS011;18853;45.426;9.206;2023-12-20T14:03:35;42.63;;;34.83;;
32393;SDS011;18853;45.426;9.206;2023-12-20T14:06:00;45.10;;;37.65;;
32393;SDS011;18853;45.426;9.206;2023-12-20T14:08:26;42.40;;;35.50;;
32393;SDS011;18853;45.426;9.206;2023-12-20T14:10:52;47.83;;;36.85;;
32393;SDS011;18853;45.426;9.206;2023-12-20T14:13:18;43.35;;;36.08;;
32393;SDS011;18853;45.426;9.206;2023-12-20T14:15:44;45.70;;;38.17;;
32393;SDS011;18853;45.426;9.206;2023-12-20T14:18:09;42.70;;;36.10;;
32393;SDS011;18853;45.426;9.206;2023-12-20T14:20:35;41.58;;;35.35;;
32393;SDS011;18853;45.426;9.206;2023-12-20T14:23:01;42.47;;;35.28;;